createdAt,value
2022-10-28T00:01:11.772Z,72.50
2022-10-28T00:03:39.658Z,72.40
2022-10-28T00:06:09.014Z,73.00
2022-10-28T00:08:35.715Z,72.40
2022-10-28T00:11:08.596Z,72.50
2022-10-28T00:13:35.767Z,72.50
2022-10-28T00:16:06.747Z,72.50
2022-10-28T00:18:33.402Z,72.40
2022-10-28T00:21:04.402Z,72.40
2022-10-28T00:23:31.107Z,72.40
2022-10-28T00:26:24.140Z,72.40
2022-10-28T00:28:52.253Z,72.40
2022-10-28T00:31:20.335Z,72.40
2022-10-28T00:33:47.183Z,72.40
2022-10-28T00:36:16.710Z,72.40
2022-10-28T00:38:44.121Z,72.40
2022-10-28T00:41:11.363Z,72.40
2022-10-28T00:43:54.289Z,72.40
2022-10-28T00:46:22.700Z,72.40
2022-10-28T00:48:52.146Z,72.40
2022-10-28T00:51:19.795Z,72.50
2022-10-28T00:53:48.216Z,72.40
2022-10-28T00:56:15.579Z,72.40
2022-10-28T00:58:42.403Z,72.50
2022-10-28T01:01:09.066Z,72.40
2022-10-28T01:03:36.221Z,72.70
2022-10-28T01:06:03.502Z,72.40
2022-10-28T01:08:30.229Z,72.50
2022-10-28T01:10:56.859Z,72.40
2022-10-28T01:13:33.419Z,72.50
2022-10-28T01:16:18.438Z,72.60
2022-10-28T01:19:03.300Z,72.60
2022-10-28T01:21:45.370Z,72.60
2022-10-28T01:24:17.975Z,72.50
2022-10-28T01:26:56.444Z,72.60
2022-10-28T01:29:25.973Z,72.50
2022-10-28T01:32:12.829Z,72.60
2022-10-28T01:34:49.071Z,72.60
2022-10-28T01:37:19.203Z,72.50
2022-10-28T01:39:55.123Z,72.50
2022-10-28T01:42:24.806Z,72.50
2022-10-28T01:45:09.769Z,72.60
2022-10-28T01:47:39.608Z,72.60
2022-10-28T01:50:08.676Z,72.60
2022-10-28T01:52:37.818Z,72.50
2022-10-28T01:55:16.195Z,72.40
2022-10-28T01:57:43.327Z,72.60
2022-10-28T02:00:10.471Z,72.50
2022-10-28T02:02:38.347Z,72.50
2022-10-28T02:05:23.840Z,72.60
2022-10-28T02:07:52.406Z,72.40
2022-10-28T02:10:22.308Z,72.50
2022-10-28T02:12:53.014Z,72.70
2022-10-28T02:15:19.875Z,72.80
2022-10-28T02:18:05.243Z,72.60
2022-10-28T02:20:40.682Z,72.50
2022-10-28T02:23:13.429Z,72.50
2022-10-28T02:25:43.399Z,72.50
2022-10-28T02:28:12.938Z,72.60
2022-10-28T02:30:44.484Z,72.50
2022-10-28T02:33:12.838Z,72.50
2022-10-28T02:35:42.899Z,72.40
2022-10-28T02:38:11.513Z,72.60
2022-10-28T02:40:39.119Z,72.70
2022-10-28T02:43:07.750Z,72.50
2022-10-28T02:45:40.138Z,72.40
2022-10-28T02:48:09.035Z,72.40
2022-10-28T02:50:38.159Z,72.40
2022-10-28T02:53:10.711Z,72.50
2022-10-28T02:55:39.832Z,72.60
2022-10-28T02:58:06.611Z,72.50
2022-10-28T03:00:33.228Z,72.40
2022-10-28T03:02:59.910Z,72.50
2022-10-28T03:05:26.542Z,72.40
2022-10-28T03:07:53.364Z,72.50
2022-10-28T03:10:20.235Z,72.50
2022-10-28T03:12:46.866Z,72.50
2022-10-28T03:15:13.620Z,72.50
2022-10-28T03:17:40.456Z,72.50
2022-10-28T03:20:07.443Z,72.50
2022-10-28T03:22:34.127Z,72.50
2022-10-28T03:25:00.761Z,72.50
2022-10-28T03:27:27.422Z,72.60
2022-10-28T03:29:54.096Z,72.50
2022-10-28T03:34:52.314Z,72.50
2022-10-28T03:37:18.954Z,72.60
2022-10-28T03:39:45.600Z,72.70
2022-10-28T03:42:12.244Z,73.00
2022-10-28T03:44:38.865Z,72.60
2022-10-28T03:47:05.518Z,72.70
2022-10-28T03:49:32.116Z,72.60
2022-10-28T03:51:58.753Z,72.60
2022-10-28T03:54:25.377Z,72.30
2022-10-28T03:56:52.003Z,72.90
2022-10-28T03:59:20.312Z,72.20
2022-10-28T04:01:47.357Z,72.40
2022-10-28T04:04:14.127Z,72.20
2022-10-28T04:06:40.794Z,72.40
2022-10-28T04:09:07.445Z,72.30
2022-10-28T04:11:34.083Z,72.70
2022-10-28T04:14:00.726Z,72.30
2022-10-28T04:16:27.349Z,72.20
2022-10-28T04:18:54.128Z,72.10
2022-10-28T04:21:20.857Z,72.10
2022-10-28T04:23:47.473Z,72.20
2022-10-28T04:26:15.430Z,72.90
2022-10-28T04:28:42.065Z,72.30
2022-10-28T04:31:10.122Z,72.10
2022-10-28T04:33:36.795Z,72.20
2022-10-28T04:36:03.620Z,72.10
2022-10-28T04:38:30.273Z,72.10
2022-10-28T04:40:57.000Z,72.00
2022-10-28T04:43:23.606Z,71.90
2022-10-28T04:45:50.254Z,72.00
2022-10-28T04:48:16.944Z,71.90
2022-10-28T04:50:43.629Z,71.90
2022-10-28T04:53:10.575Z,71.90
2022-10-28T04:55:37.213Z,72.00
2022-10-28T04:58:03.883Z,72.00
2022-10-28T05:00:30.583Z,71.90
2022-10-28T05:02:57.561Z,71.90
2022-10-28T05:05:24.527Z,71.80
2022-10-28T05:07:51.295Z,71.80
2022-10-28T05:10:18.353Z,71.80
2022-10-28T05:12:45.723Z,71.70
2022-10-28T05:15:13.037Z,71.70
2022-10-28T05:17:46.355Z,71.70
2022-10-28T05:20:13.953Z,71.80
2022-10-28T05:22:45.432Z,71.70
2022-10-28T05:25:12.102Z,71.70
2022-10-28T05:27:38.749Z,72.30
2022-10-28T05:30:05.713Z,71.70
2022-10-28T05:32:32.341Z,71.60
2022-10-28T05:34:59.031Z,71.70
2022-10-28T05:37:25.664Z,71.60
2022-10-28T05:39:52.294Z,71.60
2022-10-28T05:42:18.973Z,71.60
2022-10-28T05:44:46.172Z,71.70
2022-10-28T05:47:13.393Z,71.60
2022-10-28T05:49:40.392Z,71.60
2022-10-28T05:52:07.042Z,71.70
2022-10-28T05:54:33.722Z,71.70
2022-10-28T05:57:00.430Z,71.70
2022-10-28T05:59:27.062Z,71.70
2022-10-28T06:01:53.732Z,71.70
2022-10-28T06:04:20.482Z,71.70
2022-10-28T06:06:47.128Z,72.00
2022-10-28T06:09:13.759Z,71.90
2022-10-28T06:11:38.876Z,71.90
2022-10-28T06:14:05.572Z,71.70
2022-10-28T06:16:32.191Z,71.80
2022-10-28T06:18:58.883Z,71.70
2022-10-28T06:21:25.503Z,71.70
2022-10-28T06:23:52.212Z,71.80
2022-10-28T06:26:18.807Z,71.70
2022-10-28T06:28:46.262Z,71.80
2022-10-28T06:31:12.927Z,71.80
2022-10-28T06:33:39.547Z,71.70
2022-10-28T06:36:06.303Z,71.60
2022-10-28T06:38:33.028Z,71.70
2022-10-28T06:40:59.692Z,72.10
2022-10-28T06:43:26.474Z,71.70
2022-10-28T06:45:55.572Z,71.70
2022-10-28T06:48:24.180Z,72.10
2022-10-28T06:50:50.993Z,71.70
2022-10-28T06:53:17.648Z,71.70
2022-10-28T06:55:48.827Z,72.10
2022-10-28T06:58:15.628Z,71.50
2022-10-28T07:00:42.367Z,71.50
2022-10-28T07:03:09.793Z,71.50
2022-10-28T07:05:36.693Z,71.50
2022-10-28T07:08:03.352Z,71.70
2022-10-28T07:10:30.090Z,71.70
2022-10-28T07:12:56.968Z,71.80
2022-10-28T07:15:23.749Z,71.90
2022-10-28T07:17:54.520Z,71.80
2022-10-28T07:20:21.536Z,71.90
2022-10-28T07:22:48.198Z,71.80
2022-10-28T07:25:14.844Z,71.60
2022-10-28T07:27:41.511Z,71.70
2022-10-28T07:30:08.483Z,71.70
2022-10-28T07:32:35.124Z,71.60
2022-10-28T07:35:01.781Z,71.50
2022-10-28T07:37:28.432Z,71.50
2022-10-28T07:39:55.189Z,71.40
2022-10-28T07:42:21.800Z,71.50
2022-10-28T07:44:48.429Z,71.50
2022-10-28T07:47:15.833Z,71.60
2022-10-28T07:49:42.486Z,71.60
2022-10-28T07:52:09.505Z,71.70
2022-10-28T07:54:36.160Z,71.70
2022-10-28T07:57:02.809Z,71.80
2022-10-28T07:59:29.465Z,71.70
2022-10-28T08:01:56.167Z,71.60
2022-10-28T08:04:22.870Z,71.70
2022-10-28T08:06:49.536Z,71.50
2022-10-28T08:09:16.410Z,71.50
2022-10-28T08:11:43.090Z,71.50
2022-10-28T08:14:09.730Z,71.60
2022-10-28T08:16:36.400Z,71.70
2022-10-28T08:19:07.503Z,72.00
2022-10-28T08:21:34.545Z,72.30
2022-10-28T08:24:01.267Z,72.30
2022-10-28T08:26:27.883Z,72.40
2022-10-28T08:28:55.112Z,72.30
2022-10-28T08:31:21.764Z,72.30
2022-10-28T08:33:48.391Z,72.30
2022-10-28T08:36:16.786Z,72.20
2022-10-28T08:38:46.758Z,72.20
2022-10-28T08:41:31.383Z,72.20
2022-10-28T08:44:13.397Z,72.20
2022-10-28T08:46:59.235Z,72.20
2022-10-28T08:49:26.060Z,72.30
2022-10-28T08:51:52.747Z,72.20
2022-10-28T08:54:37.704Z,72.20
2022-10-28T08:57:06.102Z,72.20
2022-10-28T08:59:35.669Z,72.30
2022-10-28T09:02:19.387Z,72.40
2022-10-28T09:04:46.296Z,72.50
2022-10-28T09:07:16.676Z,72.70
2022-10-28T09:09:43.553Z,72.90
2022-10-28T09:12:13.354Z,73.10
2022-10-28T09:14:46.966Z,73.20
2022-10-28T09:17:18.394Z,73.10
2022-10-28T09:19:47.851Z,73.00
2022-10-28T09:22:20.767Z,73.10
2022-10-28T09:24:52.565Z,73.00
2022-10-28T09:27:28.308Z,73.00
2022-10-28T09:29:58.002Z,72.90
2022-10-28T09:32:44.357Z,72.80
2022-10-28T09:35:16.254Z,72.80
2022-10-28T09:37:47.561Z,72.80
2022-10-28T09:40:14.335Z,72.80
2022-10-28T09:42:43.973Z,72.70
2022-10-28T09:45:16.726Z,72.80
2022-10-28T09:47:49.881Z,72.80
2022-10-28T09:50:18.786Z,72.80
2022-10-28T09:52:57.760Z,72.90
2022-10-28T09:55:24.622Z,73.00
2022-10-28T09:57:51.531Z,73.00
2022-10-28T10:00:18.538Z,73.10
2022-10-28T10:02:45.505Z,73.10
2022-10-28T10:05:17.282Z,73.50
2022-10-28T10:07:56.522Z,73.20
2022-10-28T10:10:25.268Z,73.20
2022-10-28T10:12:53.074Z,73.30
2022-10-28T10:15:27.092Z,73.10
2022-10-28T10:17:56.271Z,73.90
2022-10-28T10:20:22.930Z,73.20
2022-10-28T10:22:49.860Z,73.40
2022-10-28T10:25:19.729Z,73.90
2022-10-28T10:27:52.704Z,73.50
2022-10-28T10:30:25.860Z,73.70
2022-10-28T10:32:52.709Z,73.80
2022-10-28T10:35:19.302Z,73.70
2022-10-28T10:37:47.174Z,73.90
2022-10-28T10:40:16.718Z,74.00
2022-10-28T10:42:57.347Z,74.20
2022-10-28T10:45:30.010Z,74.00
2022-10-28T10:48:07.243Z,74.30
2022-10-28T10:50:34.692Z,73.90
2022-10-28T10:53:01.550Z,74.50
2022-10-28T10:55:32.382Z,74.50
2022-10-28T10:57:59.366Z,74.30
2022-10-28T11:00:30.118Z,74.70
2022-10-28T11:02:57.790Z,74.50
2022-10-28T11:05:27.342Z,74.60
2022-10-28T11:08:05.080Z,74.20
2022-10-28T11:10:33.435Z,74.00
2022-10-28T11:13:03.065Z,74.50
2022-10-28T11:15:30.438Z,74.10
2022-10-28T11:18:09.186Z,74.00
2022-10-28T11:20:44.164Z,74.10
2022-10-28T11:23:16.654Z,74.00
2022-10-28T11:25:44.609Z,74.10
2022-10-28T11:28:17.299Z,74.00
2022-10-28T11:31:02.857Z,73.90
2022-10-28T11:33:37.816Z,73.90
2022-10-28T11:36:04.786Z,73.90
2022-10-28T11:38:45.520Z,73.90
2022-10-28T11:41:27.878Z,73.90
2022-10-28T11:43:58.592Z,73.90
2022-10-28T11:46:36.882Z,74.20
2022-10-28T11:49:16.799Z,73.90
2022-10-28T11:51:51.942Z,73.90
2022-10-28T11:54:20.429Z,74.00
2022-10-28T11:56:56.081Z,74.00
2022-10-28T11:59:31.884Z,74.00
2022-10-28T12:02:07.782Z,74.00
2022-10-28T12:04:37.616Z,74.00
2022-10-28T12:07:07.349Z,74.00
2022-10-28T12:09:44.448Z,74.00
2022-10-28T12:12:20.163Z,74.10
2022-10-28T12:15:01.359Z,74.20
2022-10-28T12:17:52.222Z,74.20
2022-10-28T12:20:44.325Z,74.10
2022-10-28T12:23:13.196Z,74.10
2022-10-28T12:25:41.990Z,74.20
2022-10-28T12:30:46.305Z,74.50
2022-10-28T12:33:19.448Z,74.50
2022-10-28T12:35:48.787Z,74.70
2022-10-28T12:38:20.122Z,74.90
2022-10-28T12:40:51.385Z,75.00
2022-10-28T12:43:25.043Z,74.60
2022-10-28T12:45:53.978Z,74.70
2022-10-28T12:48:39.378Z,74.90
2022-10-28T12:51:12.375Z,75.00
2022-10-28T12:53:49.209Z,74.70
2022-10-28T12:56:18.718Z,74.80
2022-10-28T12:58:59.822Z,75.60
2022-10-28T13:01:28.999Z,75.00
2022-10-28T13:03:55.863Z,75.40
2022-10-28T13:06:34.616Z,75.30
2022-10-28T13:09:11.732Z,75.30
2022-10-28T13:11:54.970Z,75.40
2022-10-28T13:14:40.495Z,75.40
2022-10-28T13:17:26.125Z,75.50
2022-10-28T13:20:11.635Z,75.30
2022-10-28T13:22:57.340Z,75.50
2022-10-28T13:25:34.142Z,75.60
2022-10-28T13:28:01.012Z,75.60
2022-10-28T13:30:28.336Z,75.80
2022-10-28T13:33:09.638Z,75.60
2022-10-28T13:35:36.885Z,75.50
2022-10-28T13:38:09.362Z,75.50
2022-10-28T13:40:36.049Z,75.50
2022-10-28T13:43:02.668Z,75.60
2022-10-28T13:45:49.442Z,75.80
2022-10-28T13:48:28.227Z,75.10
2022-10-28T13:51:10.275Z,75.70
2022-10-28T13:53:39.082Z,75.70
2022-10-28T13:56:26.002Z,75.40
2022-10-28T13:59:24.788Z,75.60
2022-10-28T14:02:28.344Z,75.40
2022-10-28T14:04:54.604Z,75.70
2022-10-28T14:07:22.696Z,75.60
2022-10-28T14:09:53.813Z,75.60
2022-10-28T14:12:26.713Z,75.50
2022-10-28T14:14:56.083Z,75.10
2022-10-28T14:17:27.680Z,75.60
2022-10-28T14:19:54.453Z,75.40
2022-10-28T14:22:35.272Z,75.20
2022-10-28T14:25:02.467Z,75.20
2022-10-28T14:27:49.378Z,75.90
2022-10-28T14:30:20.230Z,75.90
2022-10-28T14:32:49.878Z,76.60
2022-10-28T14:35:20.244Z,75.70
2022-10-28T14:37:56.096Z,75.60
2022-10-28T14:40:43.931Z,75.70
2022-10-28T14:43:16.011Z,75.60
2022-10-28T14:45:42.749Z,75.50
2022-10-28T14:48:15.436Z,75.20
2022-10-28T14:50:47.850Z,75.20
2022-10-28T14:53:20.008Z,75.20
2022-10-28T14:55:49.246Z,75.00
2022-10-28T14:58:22.848Z,75.00
2022-10-28T15:00:56.265Z,75.00
2022-10-28T15:03:22.956Z,75.10
2022-10-28T15:05:49.593Z,75.00
2022-10-28T15:08:16.294Z,75.00
2022-10-28T15:10:47.385Z,75.00
2022-10-28T15:13:16.738Z,75.10
2022-10-28T15:15:52.351Z,75.10
2022-10-28T15:18:23.395Z,75.20
2022-10-28T15:20:50.173Z,75.00
2022-10-28T15:23:18.838Z,75.10
2022-10-28T15:25:45.994Z,75.10
2022-10-28T15:28:13.114Z,75.10
2022-10-28T15:30:45.805Z,75.20
2022-10-28T15:33:21.022Z,75.20
2022-10-28T15:35:48.017Z,75.20
2022-10-28T15:38:20.805Z,75.20
2022-10-28T15:40:47.412Z,75.20
2022-10-28T15:43:18.925Z,75.20
2022-10-28T15:45:46.210Z,75.20
2022-10-28T15:48:14.407Z,75.20
2022-10-28T15:50:41.594Z,75.10
2022-10-28T15:53:11.304Z,75.20
2022-10-28T15:58:30.623Z,75.20
2022-10-28T16:00:58.174Z,75.10
2022-10-28T16:03:26.900Z,75.20
2022-10-28T16:05:57.937Z,75.20
2022-10-28T16:08:26.439Z,75.20
2022-10-28T16:11:03.530Z,75.20
2022-10-28T16:13:33.165Z,75.10
2022-10-28T16:16:07.830Z,75.20
2022-10-28T16:18:39.081Z,75.20
2022-10-28T16:21:05.877Z,75.30
2022-10-28T16:23:34.329Z,75.20
2022-10-28T16:26:00.988Z,75.30
2022-10-28T16:28:28.149Z,75.20
2022-10-28T16:30:55.862Z,75.20
2022-10-28T16:33:33.153Z,75.40
2022-10-28T16:36:00.592Z,75.20
2022-10-28T16:38:27.256Z,75.60
2022-10-28T16:40:54.047Z,75.40
2022-10-28T16:43:22.362Z,75.10
2022-10-28T16:45:49.634Z,75.10
2022-10-28T16:48:17.321Z,75.20
2022-10-28T16:50:47.524Z,75.20
2022-10-28T16:53:14.357Z,75.10
2022-10-28T16:55:41.048Z,75.70
2022-10-28T16:58:07.804Z,75.10
2022-10-28T17:00:35.339Z,75.20
2022-10-28T17:03:02.054Z,75.10
2022-10-28T17:05:28.719Z,75.20
2022-10-28T17:07:56.236Z,75.30
2022-10-28T17:10:23.610Z,75.30
2022-10-28T17:12:50.643Z,75.30
2022-10-28T17:15:17.449Z,75.40
2022-10-28T17:17:44.086Z,75.30
2022-10-28T17:20:11.014Z,75.30
2022-10-28T17:22:39.076Z,75.50
2022-10-28T17:25:05.956Z,75.60
2022-10-28T17:27:32.682Z,75.60
2022-10-28T17:29:59.351Z,75.60
2022-10-28T17:32:25.997Z,75.60
2022-10-28T17:34:52.616Z,75.60
2022-10-28T17:37:19.225Z,75.60
2022-10-28T17:39:45.922Z,75.50
2022-10-28T17:42:12.609Z,75.50
2022-10-28T17:44:39.753Z,75.80
2022-10-28T17:47:06.390Z,75.70
2022-10-28T17:49:34.351Z,75.20
2022-10-28T17:52:01.092Z,75.70
2022-10-28T17:54:28.222Z,75.60
2022-10-28T17:56:54.871Z,75.50
2022-10-28T17:59:21.486Z,75.40
2022-10-28T18:01:48.199Z,75.30
2022-10-28T18:04:14.909Z,75.30
2022-10-28T18:06:41.565Z,75.30
2022-10-28T18:09:12.188Z,75.80
2022-10-28T18:11:39.922Z,75.40
2022-10-28T18:14:06.851Z,75.30
2022-10-28T18:16:35.697Z,75.10
2022-10-28T18:19:03.656Z,75.40
2022-10-28T18:21:30.358Z,75.10
2022-10-28T18:24:04.061Z,75.20
2022-10-28T18:26:32.044Z,74.90
2022-10-28T18:28:59.002Z,74.90
2022-10-28T18:31:25.773Z,74.80
2022-10-28T18:33:52.996Z,74.80
2022-10-28T18:36:20.967Z,74.80
2022-10-28T18:38:48.887Z,74.90
2022-10-28T18:41:17.189Z,74.80
2022-10-28T18:43:43.853Z,74.80
2022-10-28T18:46:10.730Z,74.70
2022-10-28T18:48:37.748Z,74.80
2022-10-28T18:51:06.805Z,75.10
2022-10-28T18:53:41.102Z,74.80
2022-10-28T18:56:09.693Z,74.80
2022-10-28T18:58:36.507Z,74.70
2022-10-28T19:01:04.167Z,74.80
2022-10-28T19:03:31.147Z,74.80
2022-10-28T19:06:02.113Z,74.70
2022-10-28T19:08:28.775Z,74.70
2022-10-28T19:10:56.326Z,74.80
2022-10-28T19:13:22.973Z,74.80
2022-10-28T19:15:49.601Z,74.80
2022-10-28T19:18:19.294Z,74.90
2022-10-28T19:20:46.334Z,74.80
2022-10-28T19:23:13.044Z,75.40
2022-10-28T19:25:39.669Z,75.00
2022-10-28T19:28:06.317Z,74.80
2022-10-28T19:30:34.469Z,74.80
2022-10-28T19:33:01.196Z,74.80
2022-10-28T19:35:27.841Z,74.90
2022-10-28T19:37:54.555Z,75.10
2022-10-28T19:40:21.220Z,75.10
2022-10-28T19:42:47.856Z,74.70
2022-10-28T19:45:15.100Z,74.70
2022-10-28T19:47:41.750Z,74.80
2022-10-28T19:50:08.645Z,74.90
2022-10-28T19:52:35.323Z,74.80
2022-10-28T19:55:02.024Z,74.80
2022-10-28T19:57:28.688Z,74.70
2022-10-28T19:59:55.401Z,74.90
2022-10-28T20:02:22.185Z,75.20
2022-10-28T20:04:53.916Z,74.80
2022-10-28T20:07:23.379Z,75.00
2022-10-28T20:09:50.643Z,75.10
2022-10-28T20:12:17.515Z,75.10
2022-10-28T20:14:44.146Z,75.80
2022-10-28T20:17:13.880Z,75.20
2022-10-28T20:19:40.642Z,75.30
2022-10-28T20:22:07.298Z,75.30
2022-10-28T20:24:33.965Z,75.40
2022-10-28T20:27:00.635Z,75.40
2022-10-28T20:29:27.321Z,75.50
2022-10-28T20:31:54.010Z,75.00
2022-10-28T20:34:22.010Z,75.40
2022-10-28T20:36:48.623Z,75.90
2022-10-28T20:39:19.316Z,75.40
2022-10-28T20:41:46.587Z,75.30
2022-10-28T20:44:13.223Z,75.40
2022-10-28T20:46:39.935Z,75.30
2022-10-28T20:49:08.613Z,75.20
2022-10-28T20:51:35.358Z,75.10
2022-10-28T20:54:02.222Z,75.10
2022-10-28T20:56:30.168Z,75.30
2022-10-28T20:58:57.852Z,75.40
2022-10-28T21:01:26.020Z,75.20
2022-10-28T21:03:56.747Z,75.60
2022-10-28T21:06:24.087Z,75.10
2022-10-28T21:08:51.714Z,75.10
2022-10-28T21:11:18.421Z,74.90
2022-10-28T21:13:51.030Z,75.00
2022-10-28T21:16:17.997Z,75.10
2022-10-28T21:18:44.770Z,74.90
2022-10-28T21:21:11.994Z,75.00
2022-10-28T21:23:38.881Z,75.00
2022-10-28T21:26:06.202Z,75.10
2022-10-28T21:28:33.081Z,75.00
2022-10-28T21:31:04.049Z,74.90
2022-10-28T21:33:30.702Z,75.00
2022-10-28T21:36:01.685Z,75.00
2022-10-28T21:38:28.691Z,75.00
2022-10-28T21:41:27.637Z,75.00
2022-10-28T21:43:54.349Z,75.40
2022-10-28T21:46:21.777Z,75.00
2022-10-28T21:48:48.434Z,75.10
2022-10-28T21:51:15.785Z,75.00
2022-10-28T21:53:43.253Z,74.90
2022-10-28T21:56:16.636Z,75.00
2022-10-28T21:58:44.913Z,75.20
2022-10-28T22:01:13.006Z,74.90
2022-10-28T22:03:39.849Z,75.10
2022-10-28T22:06:06.872Z,75.30
2022-10-28T22:08:33.514Z,75.00
2022-10-28T22:11:07.073Z,75.00
2022-10-28T22:13:34.502Z,75.10
2022-10-28T22:16:02.312Z,75.10
2022-10-28T22:18:29.778Z,75.00
2022-10-28T22:20:56.934Z,75.10
2022-10-28T22:23:23.591Z,75.10
2022-10-28T22:25:50.249Z,75.20
2022-10-28T22:28:16.865Z,75.00
2022-10-28T22:30:43.550Z,75.40
2022-10-28T22:33:10.205Z,75.10
2022-10-28T22:35:36.881Z,75.00
2022-10-28T22:38:03.518Z,75.10
2022-10-28T22:40:30.158Z,75.10
2022-10-28T22:42:56.877Z,75.20
2022-10-28T22:45:23.492Z,75.20
2022-10-28T22:47:51.135Z,75.20
2022-10-28T22:50:17.791Z,75.20
2022-10-28T22:52:44.407Z,75.20
2022-10-28T22:55:11.113Z,75.20
2022-10-28T22:57:37.734Z,75.20
2022-10-28T23:00:04.598Z,75.20
2022-10-28T23:02:31.426Z,75.20
2022-10-28T23:04:58.160Z,75.20
2022-10-28T23:07:24.762Z,75.20
2022-10-28T23:09:51.370Z,75.20
2022-10-28T23:12:18.068Z,75.30
2022-10-28T23:14:44.667Z,75.30
2022-10-28T23:17:11.348Z,75.30
2022-10-28T23:19:37.991Z,75.20
2022-10-28T23:22:04.692Z,75.20
2022-10-28T23:24:31.285Z,75.30
2022-10-28T23:29:24.432Z,75.40
2022-10-28T23:31:51.071Z,75.30
2022-10-28T23:34:17.758Z,75.30
2022-10-28T23:36:44.403Z,75.40
2022-10-28T23:39:11.053Z,75.40
2022-10-28T23:41:37.712Z,75.50
2022-10-28T23:44:04.395Z,75.40
2022-10-28T23:46:36.447Z,75.50
2022-10-28T23:49:04.292Z,75.50
2022-10-28T23:51:31.012Z,75.50
2022-10-28T23:53:57.755Z,75.40
2022-10-28T23:56:24.460Z,75.40
2022-10-28T23:58:51.107Z,75.30
